WHISKEYTOWN DAM (USBR) (WHI)

Elevation: 1210' · SACRAMENTO R basin · Operator: US Bureau of Reclamation

Provisional data, subject to change.
Query executed Wednesday at 3:24:35   clock

Select a sensor type for a plot of data.
Note: Reservoir Flows are daily averages.

Earlier

Date RES ELE    STORAGE    RES CHG    OUTFLOW    INFLOW    EVAP    RIV REL    PPT INC    RAIN    SPILL    DIS PWR   
 FEET   AF   AF   CFS   CFS   CFS   CFS   INCHES   INCHES   CFS   CFS  
07/26/2016 1208.98 237831 -224 864 779 28 151 0.00 63.78 0 713
07/27/2016 1209.30 238855 1024 606 1156 34 152 0.00 63.78 0 454
07/28/2016 1209.32 238919 64 928 991 31 153 0.00 63.78 0 775
07/29/2016 1209.17 238439 -480 1080 868 30 153 0.00 63.78 0 927
07/30/2016 1209.17 238439 0 1108 1135 27 153 0.00 63.78 0 955
07/31/2016 1209.11 238247 -192 1261 1201 37 153 0.00 63.78 0 1108
08/01/2016 1209.04 238023 -224 1172 1090 31 153 0.00 63.78 0 1019
08/02/2016 1208.99 237863 -160 1096 1052 37 152 0.00 63.78 0 944
08/03/2016 1209.00 237895 32 942 995 37 152 0.00 63.78 0 790
08/04/2016 1209.06 238087 192 923 1053 33 156 0.00 63.78 0 767
08/05/2016 1209.08 238151 64 865 920 23 156 0.00 63.78 0 709
08/06/2016 1209.10 238215 64 869 925 24 157 0.00 63.78 0 712
08/07/2016 1208.93 237673 -542 1100 851 24 157 0.00 63.78 0 943
08/08/2016 1208.89 237545 -128 946 909 28 157 0.00 63.78 0 789
08/09/2016 1208.86 237450 -95 971 957 34 157 0.00 63.78 0 814
08/10/2016 1208.96 237768 318 896 1077 21 156 0.00 63.78 0 740
08/11/2016 1209.23 238631 863 790 1256 31 156 0.00 63.78 0 634
08/12/2016 1209.29 238823 192 832 957 28 156 0.00 63.78 0 676
08/13/2016 1209.33 238951 128 948 1041 28 156 0.00 63.78 0 792
08/14/2016 1209.24 238663 -288 1034 917 28 156 0.00 63.78 0 878
08/15/2016 1209.17 238439 -224 1097 1011 27 156 0.00 63.78 0 941
08/16/2016 1209.18 238471 32 946 994 32 156 0.00 63.78 0 790
08/17/2016 1209.20 238535 64 946 1007 29 157 0.00 63.78 0 789
08/18/2016 1209.02 237959 -576 1257 996 29 157 0.00 63.78 0 1100
08/19/2016 1209.02 237959 0 948 977 29 157 0.00 63.78 0 791
08/20/2016 1208.91 237609 -350 1261 1114 29 157 0.00 63.78 0 1104
08/21/2016 1209.00 237895 286 1051 1195 0 157 0.00 63.78 0 894
08/22/2016 1208.90 237577 -318 1231 1096 25 157 0.00 63.78 0 1074
08/23/2016 -- -- -- -- -- -- -- -- -- -- --
08/24/2016 -- -- -- -- -- -- -- -- -- -- --

Later | Latest

Warning! This data is preliminary and subject to revision.

Show WHI Map | Plot WHI Data | 1 Month WHI Data | Real-Time WHI Data | WHI Info